sensor_id;sensor_type;location;lat;lon;timestamp;pressure;altitude;pressure_sealevel;temperature;humidity
3464;BME280;3551;41.578;24.706;2024-02-14T00:00:00;90594.00;;;5.12;100.00
3464;BME280;3551;41.578;24.706;2024-02-14T00:02:27;90599.38;;;5.30;100.00
3464;BME280;3551;41.578;24.706;2024-02-14T00:04:54;90589.97;;;5.39;100.00
3464;BME280;3551;41.578;24.706;2024-02-14T00:07:21;90599.09;;;5.52;100.00
3464;BME280;3551;41.578;24.706;2024-02-14T00:09:48;90600.47;;;5.18;100.00
3464;BME280;3551;41.578;24.706;2024-02-14T00:12:15;90592.22;;;5.41;100.00
3464;BME280;3551;41.578;24.706;2024-02-14T00:14:42;90591.81;;;5.32;100.00
3464;BME280;3551;41.578;24.706;2024-02-14T00:17:11;90593.69;;;5.24;100.00
3464;BME280;3551;41.578;24.706;2024-02-14T00:19:37;90595.56;;;5.24;100.00
3464;BME280;3551;41.578;24.706;2024-02-14T00:22:05;90602.78;;;5.27;100.00
3464;BME280;3551;41.578;24.706;2024-02-14T00:24:32;90598.31;;;5.45;100.00
3464;BME280;3551;41.578;24.706;2024-02-14T00:26:59;90602.44;;;5.35;100.00
3464;BME280;3551;41.578;24.706;2024-02-14T00:29:26;90597.06;;;5.18;100.00
3464;BME280;3551;41.578;24.706;2024-02-14T00:31:53;90593.69;;;5.24;100.00
3464;BME280;3551;41.578;24.706;2024-02-14T00:34:21;90597.78;;;5.11;100.00
3464;BME280;3551;41.578;24.706;2024-02-14T00:36:49;90599.81;;;5.42;100.00
3464;BME280;3551;41.578;24.706;2024-02-14T00:39:16;90589.22;;;5.49;100.00
3464;BME280;3551;41.578;24.706;2024-02-14T00:41:46;90592.59;;;5.36;100.00
3464;BME280;3551;41.578;24.706;2024-02-14T00:44:13;90590.31;;;5.34;100.00
3464;BME280;3551;41.578;24.706;2024-02-14T00:46:42;90602.06;;;5.37;100.00
3464;BME280;3551;41.578;24.706;2024-02-14T00:49:09;90576.69;;;5.36;100.00
3464;BME280;3551;41.578;24.706;2024-02-14T00:51:38;90584.72;;;5.67;100.00
3464;BME280;3551;41.578;24.706;2024-02-14T00:54:05;90597.63;;;5.69;100.00
3464;BME280;3551;41.578;24.706;2024-02-14T00:56:32;90587.72;;;5.55;100.00
3464;BME280;3551;41.578;24.706;2024-02-14T00:59:00;90583.88;;;5.28;100.00
3464;BME280;3551;41.578;24.706;2024-02-14T01:01:27;90586.91;;;5.37;100.00
3464;BME280;3551;41.578;24.706;2024-02-14T01:03:54;90595.22;;;5.25;100.00
3464;BME280;3551;41.578;24.706;2024-02-14T01:06:21;90586.44;;;5.14;100.00
3464;BME280;3551;41.578;24.706;2024-02-14T01:08:50;90589.19;;;5.35;100.00
3464;BME280;3551;41.578;24.706;2024-02-14T01:11:17;90591.13;;;5.45;100.00
3464;BME280;3551;41.578;24.706;2024-02-14T01:13:44;90589.22;;;5.49;100.00
3464;BME280;3551;41.578;24.706;2024-02-14T01:16:11;90591.31;;;5.01;100.00
3464;BME280;3551;41.578;24.706;2024-02-14T01:18:37;90589.41;;;4.98;100.00
3464;BME280;3551;41.578;24.706;2024-02-14T01:21:05;90597.69;;;4.93;100.00
3464;BME280;3551;41.578;24.706;2024-02-14T01:23:32;90588.41;;;4.59;100.00
3464;BME280;3551;41.578;24.706;2024-02-14T01:26:03;90601.66;;;4.59;100.00
3464;BME280;3551;41.578;24.706;2024-02-14T01:28:30;90603.16;;;4.57;100.00
3464;BME280;3551;41.578;24.706;2024-02-14T01:30:57;90593.44;;;4.75;100.00
3464;BME280;3551;41.578;24.706;2024-02-14T01:33:24;90588.81;;;4.65;100.00
3464;BME280;3551;41.578;24.706;2024-02-14T01:35:50;90597.81;;;4.53;100.00
3464;BME280;3551;41.578;24.706;2024-02-14T01:38:17;90599.69;;;4.49;100.00
3464;BME280;3551;41.578;24.706;2024-02-14T01:40:44;90604.59;;;4.47;100.00
3464;BME280;3551;41.578;24.706;2024-02-14T01:43:13;90602.66;;;4.40;100.00
3464;BME280;3551;41.578;24.706;2024-02-14T01:45:41;90607.22;;;4.43;100.00
3464;BME280;3551;41.578;24.706;2024-02-14T01:48:08;90608.50;;;4.67;100.00
3464;BME280;3551;41.578;24.706;2024-02-14T01:50:36;90601.75;;;4.77;100.00
3464;BME280;3551;41.578;24.706;2024-02-14T01:53:04;90605.97;;;4.85;100.00
3464;BME280;3551;41.578;24.706;2024-02-14T01:55:32;90611.19;;;4.71;100.00
3464;BME280;3551;41.578;24.706;2024-02-14T01:58:00;90612.31;;;4.70;100.00
3464;BME280;3551;41.578;24.706;2024-02-14T02:00:30;90608.81;;;4.55;100.00
3464;BME280;3551;41.578;24.706;2024-02-14T02:02:58;90608.81;;;4.59;100.00
3464;BME280;3551;41.578;24.706;2024-02-14T02:05:25;90610.53;;;4.88;100.00
3464;BME280;3551;41.578;24.706;2024-02-14T02:07:52;90626.94;;;5.11;100.00
3464;BME280;3551;41.578;24.706;2024-02-14T02:10:19;90612.97;;;5.21;100.00
3464;BME280;3551;41.578;24.706;2024-02-14T02:12:48;90642.88;;;5.18;100.00
3464;BME280;3551;41.578;24.706;2024-02-14T02:15:16;90607.69;;;5.25;100.00
3464;BME280;3551;41.578;24.706;2024-02-14T02:17:45;90628.13;;;5.24;100.00
3464;BME280;3551;41.578;24.706;2024-02-14T02:20:18;90612.56;;;5.12;100.00
3464;BME280;3551;41.578;24.706;2024-02-14T02:22:46;90620.97;;;5.25;100.00
3464;BME280;3551;41.578;24.706;2024-02-14T02:25:14;90613.44;;;5.34;100.00
3464;BME280;3551;41.578;24.706;2024-02-14T02:27:41;90635.28;;;5.13;100.00
3464;BME280;3551;41.578;24.706;2024-02-14T02:30:08;90617.63;;;5.42;100.00
3464;BME280;3551;41.578;24.706;2024-02-14T02:32:36;90619.50;;;5.41;100.00
3464;BME280;3551;41.578;24.706;2024-02-14T02:35:03;90624.06;;;5.44;100.00
3464;BME280;3551;41.578;24.706;2024-02-14T02:37:31;90624.44;;;5.43;100.00
3464;BME280;3551;41.578;24.706;2024-02-14T02:39:59;90627.81;;;5.33;100.00
3464;BME280;3551;41.578;24.706;2024-02-14T02:42:26;90626.50;;;4.98;100.00
3464;BME280;3551;41.578;24.706;2024-02-14T02:44:54;90632.66;;;5.20;100.00
3464;BME280;3551;41.578;24.706;2024-02-14T02:47:21;90639.56;;;5.39;100.00
3464;BME280;3551;41.578;24.706;2024-02-14T02:49:48;90638.09;;;5.52;100.00
3464;BME280;3551;41.578;24.706;2024-02-14T02:52:15;90638.69;;;5.14;100.00
3464;BME280;3551;41.578;24.706;2024-02-14T02:54:42;90651.94;;;5.10;100.00
3464;BME280;3551;41.578;24.706;2024-02-14T02:57:11;90639.84;;;5.20;100.00
3464;BME280;3551;41.578;24.706;2024-02-14T02:59:38;90663.00;;;5.30;100.00
3464;BME280;3551;41.578;24.706;2024-02-14T03:02:08;90645.22;;;5.34;100.00
3464;BME280;3551;41.578;24.706;2024-02-14T03:04:37;90657.38;;;5.38;100.00
3464;BME280;3551;41.578;24.706;2024-02-14T03:07:04;90652.47;;;5.47;100.00
3464;BME280;3551;41.578;24.706;2024-02-14T03:09:33;90666.91;;;5.60;100.00
3464;BME280;3551;41.578;24.706;2024-02-14T03:12:00;90664.63;;;5.55;100.00
3464;BME280;3551;41.578;24.706;2024-02-14T03:14:30;90696.78;;;5.47;100.00
3464;BME280;3551;41.578;24.706;2024-02-14T03:16:58;90670.81;;;5.05;100.00
3464;BME280;3551;41.578;24.706;2024-02-14T03:19:25;90673.03;;;4.99;100.00
3464;BME280;3551;41.578;24.706;2024-02-14T03:21:53;90664.25;;;4.81;100.00
3464;BME280;3551;41.578;24.706;2024-02-14T03:24:20;90670.81;;;5.05;100.00
3464;BME280;3551;41.578;24.706;2024-02-14T03:26:47;90663.75;;;5.27;100.00
3464;BME280;3551;41.578;24.706;2024-02-14T03:29:17;90693.28;;;5.29;100.00
3464;BME280;3551;41.578;24.706;2024-02-14T03:31:46;90686.44;;;5.24;100.00
3464;BME280;3551;41.578;24.706;2024-02-14T03:34:13;90677.06;;;4.79;100.00
3464;BME280;3551;41.578;24.706;2024-02-14T03:36:40;90691.91;;;4.87;100.00
3464;BME280;3551;41.578;24.706;2024-02-14T03:39:08;90693.53;;;5.06;100.00
3464;BME280;3551;41.578;24.706;2024-02-14T03:41:37;90698.59;;;5.25;100.00
3464;BME280;3551;41.578;24.706;2024-02-14T03:44:04;90683.91;;;5.45;100.00
3464;BME280;3551;41.578;24.706;2024-02-14T03:46:32;90686.63;;;5.56;100.00
3464;BME280;3551;41.578;24.706;2024-02-14T03:49:02;90669.19;;;5.51;100.00
3464;BME280;3551;41.578;24.706;2024-02-14T03:51:29;90688.38;;;5.27;100.00
3464;BME280;3551;41.578;24.706;2024-02-14T03:53:56;90693.63;;;5.24;100.00
3464;BME280;3551;41.578;24.706;2024-02-14T03:56:23;90684.81;;;5.05;100.00
3464;BME280;3551;41.578;24.706;2024-02-14T03:58:51;90695.81;;;5.11;100.00
3464;BME280;3551;41.578;24.706;2024-02-14T04:01:18;90696.59;;;5.11;100.00
3464;BME280;3551;41.578;24.706;2024-02-14T04:03:46;90701.91;;;5.15;100.00
3464;BME280;3551;41.578;24.706;2024-02-14T04:06:15;90706.53;;;5.25;100.00
3464;BME280;3551;41.578;24.706;2024-02-14T04:08:43;90703.19;;;5.39;100.00
3464;BME280;3551;41.578;24.706;2024-02-14T04:11:10;90692.75;;;5.05;100.00
3464;BME280;3551;41.578;24.706;2024-02-14T04:13:39;90709.59;;;5.34;100.00
3464;BME280;3551;41.578;24.706;2024-02-14T04:16:06;90727.75;;;5.29;100.00
3464;BME280;3551;41.578;24.706;2024-02-14T04:18:33;90717.88;;;5.26;100.00
3464;BME280;3551;41.578;24.706;2024-02-14T04:21:00;90716.66;;;5.13;100.00
3464;BME280;3551;41.578;24.706;2024-02-14T04:23:31;90719.75;;;5.22;100.00
3464;BME280;3551;41.578;24.706;2024-02-14T04:25:58;90715.03;;;4.97;100.00
3464;BME280;3551;41.578;24.706;2024-02-14T04:28:24;90708.75;;;5.16;100.00
3464;BME280;3551;41.578;24.706;2024-02-14T04:30:51;90707.72;;;5.35;100.00
3464;BME280;3551;41.578;24.706;2024-02-14T04:33:18;90726.69;;;5.37;100.00
3464;BME280;3551;41.578;24.706;2024-02-14T04:35:47;90719.91;;;5.46;100.00
3464;BME280;3551;41.578;24.706;2024-02-14T04:38:13;90722.19;;;5.48;100.00
3464;BME280;3551;41.578;24.706;2024-02-14T04:40:43;90723.34;;;5.57;100.00
3464;BME280;3551;41.578;24.706;2024-02-14T04:43:10;90724.47;;;5.53;100.00
3464;BME280;3551;41.578;24.706;2024-02-14T04:45:37;90727.38;;;5.30;100.00
3464;BME280;3551;41.578;24.706;2024-02-14T04:48:05;90730.81;;;5.38;100.00
3464;BME280;3551;41.578;24.706;2024-02-14T04:50:33;90727.41;;;5.34;100.00
3464;BME280;3551;41.578;24.706;2024-02-14T04:53:00;90770.88;;;5.26;100.00
3464;BME280;3551;41.578;24.706;2024-02-14T04:55:26;90740.31;;;5.39;100.00
3464;BME280;3551;41.578;24.706;2024-02-14T04:57:55;90715.97;;;5.19;100.00
3464;BME280;3551;41.578;24.706;2024-02-14T05:00:25;90736.50;;;5.33;100.00
3464;BME280;3551;41.578;24.706;2024-02-14T05:02:53;90729.63;;;5.25;100.00
3464;BME280;3551;41.578;24.706;2024-02-14T05:05:20;90724.72;;;5.27;100.00
3464;BME280;3551;41.578;24.706;2024-02-14T05:07:47;90731.59;;;5.38;100.00
3464;BME280;3551;41.578;24.706;2024-02-14T05:10:14;90724.47;;;5.49;100.00
3464;BME280;3551;41.578;24.706;2024-02-14T05:12:41;90733.88;;;5.36;100.00
3464;BME280;3551;41.578;24.706;2024-02-14T05:15:08;90732.34;;;5.35;100.00
3464;BME280;3551;41.578;24.706;2024-02-14T05:17:37;90728.50;;;5.29;100.00
3464;BME280;3551;41.578;24.706;2024-02-14T05:20:05;90734.84;;;5.14;100.00
3464;BME280;3551;41.578;24.706;2024-02-14T05:22:35;90763.84;;;4.93;100.00
3464;BME280;3551;41.578;24.706;2024-02-14T05:25:03;90761.66;;;5.05;100.00
3464;BME280;3551;41.578;24.706;2024-02-14T05:27:30;90746.88;;;5.01;100.00
3464;BME280;3551;41.578;24.706;2024-02-14T05:29:57;90748.63;;;5.34;100.00
3464;BME280;3551;41.578;24.706;2024-02-14T05:32:25;90760.13;;;5.59;100.00
3464;BME280;3551;41.578;24.706;2024-02-14T05:34:52;90761.56;;;5.42;100.00
3464;BME280;3551;41.578;24.706;2024-02-14T05:37:19;90756.25;;;5.42;100.00
3464;BME280;3551;41.578;24.706;2024-02-14T05:39:46;90763.22;;;5.10;100.00
3464;BME280;3551;41.578;24.706;2024-02-14T05:42:13;90767.88;;;4.80;100.00
3464;BME280;3551;41.578;24.706;2024-02-14T05:44:41;90784.66;;;4.94;100.00
3464;BME280;3551;41.578;24.706;2024-02-14T05:47:09;90768.53;;;5.10;100.00
3464;BME280;3551;41.578;24.706;2024-02-14T05:49:39;90768.66;;;4.80;100.00
3464;BME280;3551;41.578;24.706;2024-02-14T05:52:07;90781.63;;;4.92;100.00
3464;BME280;3551;41.578;24.706;2024-02-14T05:54:34;90781.84;;;5.21;100.00
3464;BME280;3551;41.578;24.706;2024-02-14T05:57:02;90775.09;;;5.30;100.00
3464;BME280;3551;41.578;24.706;2024-02-14T05:59:29;90778.00;;;5.15;100.00
3464;BME280;3551;41.578;24.706;2024-02-14T06:01:58;90790.03;;;5.05;100.00
3464;BME280;3551;41.578;24.706;2024-02-14T06:04:25;90780.78;;;5.32;100.00
3464;BME280;3551;41.578;24.706;2024-02-14T06:06:54;90810.81;;;5.47;100.00
3464;BME280;3551;41.578;24.706;2024-02-14T06:09:21;90793.91;;;5.73;100.00
3464;BME280;3551;41.578;24.706;2024-02-14T06:11:48;90798.16;;;5.81;100.00
3464;BME280;3551;41.578;24.706;2024-02-14T06:14:15;90798.50;;;5.79;100.00
3464;BME280;3551;41.578;24.706;2024-02-14T06:16:42;90800.44;;;5.82;100.00
3464;BME280;3551;41.578;24.706;2024-02-14T06:19:09;90795.81;;;5.68;100.00
3464;BME280;3551;41.578;24.706;2024-02-14T06:21:37;90802.94;;;5.61;100.00
3464;BME280;3551;41.578;24.706;2024-02-14T06:24:12;90796.56;;;5.73;100.00
3464;BME280;3551;41.578;24.706;2024-02-14T06:26:44;90805.78;;;5.86;100.00
3464;BME280;3551;41.578;24.706;2024-02-14T06:29:10;90810.38;;;5.92;100.00
3464;BME280;3551;41.578;24.706;2024-02-14T06:31:38;90807.66;;;5.85;100.00
3464;BME280;3551;41.578;24.706;2024-02-14T06:34:04;90814.50;;;5.90;100.00
3464;BME280;3551;41.578;24.706;2024-02-14T06:36:32;90810.41;;;5.99;100.00
3464;BME280;3551;41.578;24.706;2024-02-14T06:38:59;90816.59;;;5.59;100.00
3464;BME280;3551;41.578;24.706;2024-02-14T06:41:27;90829.06;;;5.55;100.00
3464;BME280;3551;41.578;24.706;2024-02-14T06:43:55;90822.28;;;5.61;100.00
3464;BME280;3551;41.578;24.706;2024-02-14T06:46:25;90832.84;;;5.54;100.00
3464;BME280;3551;41.578;24.706;2024-02-14T06:48:57;90819.88;;;5.42;100.00
3464;BME280;3551;41.578;24.706;2024-02-14T06:51:27;90820.94;;;5.34;100.00
3464;BME280;3551;41.578;24.706;2024-02-14T06:53:54;90823.09;;;5.18;100.00
3464;BME280;3551;41.578;24.706;2024-02-14T06:56:21;90857.09;;;5.09;100.00
3464;BME280;3551;41.578;24.706;2024-02-14T06:58:49;90854.91;;;5.65;100.00
3464;BME280;3551;41.578;24.706;2024-02-14T07:01:18;90827.84;;;5.46;100.00
3464;BME280;3551;41.578;24.706;2024-02-14T07:03:48;90843.09;;;5.59;100.00
3464;BME280;3551;41.578;24.706;2024-02-14T07:06:21;90821.34;;;5.91;100.00
3464;BME280;3551;41.578;24.706;2024-02-14T07:08:48;90826.44;;;6.20;100.00
3464;BME280;3551;41.578;24.706;2024-02-14T07:11:16;90827.91;;;6.14;100.00
3464;BME280;3551;41.578;24.706;2024-02-14T07:13:43;90833.31;;;6.32;100.00
3464;BME280;3551;41.578;24.706;2024-02-14T07:16:11;90835.22;;;6.35;100.00
3464;BME280;3551;41.578;24.706;2024-02-14T07:18:38;90859.47;;;6.30;100.00
3464;BME280;3551;41.578;24.706;2024-02-14T07:21:05;90832.97;;;6.44;100.00
3464;BME280;3551;41.578;24.706;2024-02-14T07:23:33;90854.97;;;6.48;100.00
3464;BME280;3551;41.578;24.706;2024-02-14T07:26:00;90846.28;;;6.51;100.00
3464;BME280;3551;41.578;24.706;2024-02-14T07:28:27;90853.13;;;6.52;100.00
3464;BME280;3551;41.578;24.706;2024-02-14T07:30:54;90854.63;;;6.57;100.00
3464;BME280;3551;41.578;24.706;2024-02-14T07:33:22;90857.69;;;6.59;100.00
3464;BME280;3551;41.578;24.706;2024-02-14T07:35:50;90862.50;;;6.32;100.00
3464;BME280;3551;41.578;24.706;2024-02-14T07:38:17;90858.16;;;5.99;100.00
3464;BME280;3551;41.578;24.706;2024-02-14T07:40:44;90857.69;;;5.87;100.00
3464;BME280;3551;41.578;24.706;2024-02-14T07:43:11;90869.25;;;6.19;100.00
3464;BME280;3551;41.578;24.706;2024-02-14T07:45:38;90870.09;;;6.34;100.00
3464;BME280;3551;41.578;24.706;2024-02-14T07:48:05;90879.63;;;6.38;100.00
3464;BME280;3551;41.578;24.706;2024-02-14T07:50:34;90868.13;;;6.20;100.00
3464;BME280;3551;41.578;24.706;2024-02-14T07:53:02;90881.69;;;6.04;100.00
3464;BME280;3551;41.578;24.706;2024-02-14T07:55:29;90881.09;;;6.32;100.00
3464;BME280;3551;41.578;24.706;2024-02-14T07:57:56;90888.69;;;6.34;100.00
3464;BME280;3551;41.578;24.706;2024-02-14T08:00:25;90891.25;;;6.19;100.00
3464;BME280;3551;41.578;24.706;2024-02-14T08:02:54;90894.41;;;6.39;100.00
3464;BME280;3551;41.578;24.706;2024-02-14T08:05:21;90897.38;;;6.23;100.00
3464;BME280;3551;41.578;24.706;2024-02-14T08:07:50;90898.41;;;6.08;100.00
3464;BME280;3551;41.578;24.706;2024-02-14T08:10:17;90900.78;;;6.24;100.00
3464;BME280;3551;41.578;24.706;2024-02-14T08:12:44;90901.97;;;6.34;100.00
3464;BME280;3551;41.578;24.706;2024-02-14T08:15:13;90911.00;;;6.22;100.00
3464;BME280;3551;41.578;24.706;2024-02-14T08:17:39;90903.91;;;6.44;100.00
3464;BME280;3551;41.578;24.706;2024-02-14T08:20:07;90898.94;;;6.32;100.00
3464;BME280;3551;41.578;24.706;2024-02-14T08:22:35;90905.19;;;6.71;100.00
3464;BME280;3551;41.578;24.706;2024-02-14T08:25:04;90904.09;;;6.90;100.00
3464;BME280;3551;41.578;24.706;2024-02-14T08:27:31;90911.66;;;6.77;100.00
3464;BME280;3551;41.578;24.706;2024-02-14T08:29:58;90912.63;;;6.41;100.00
3464;BME280;3551;41.578;24.706;2024-02-14T08:32:25;90909.53;;;6.32;100.00
3464;BME280;3551;41.578;24.706;2024-02-14T08:34:51;90913.44;;;6.52;100.00
3464;BME280;3551;41.578;24.706;2024-02-14T08:37:18;90921.75;;;6.43;100.00
3464;BME280;3551;41.578;24.706;2024-02-14T08:39:45;90929.44;;;6.66;100.00
3464;BME280;3551;41.578;24.706;2024-02-14T08:42:14;90936.69;;;6.65;100.00
3464;BME280;3551;41.578;24.706;2024-02-14T08:44:43;90924.44;;;6.47;100.00
3464;BME280;3551;41.578;24.706;2024-02-14T08:47:10;90923.59;;;6.32;100.00
3464;BME280;3551;41.578;24.706;2024-02-14T08:49:40;90948.38;;;6.57;100.00
3464;BME280;3551;41.578;24.706;2024-02-14T08:52:08;90926.03;;;6.62;100.00
3464;BME280;3551;41.578;24.706;2024-02-14T08:54:36;90945.44;;;6.80;100.00
3464;BME280;3551;41.578;24.706;2024-02-14T08:57:03;90933.38;;;6.97;100.00
3464;BME280;3551;41.578;24.706;2024-02-14T08:59:32;90929.66;;;7.26;100.00
3464;BME280;3551;41.578;24.706;2024-02-14T09:01:57;90942.19;;;7.22;100.00
3464;BME280;3551;41.578;24.706;2024-02-14T09:04:24;90953.25;;;7.42;100.00
3464;BME280;3551;41.578;24.706;2024-02-14T09:06:53;90948.34;;;7.47;100.00
3464;BME280;3551;41.578;24.706;2024-02-14T09:09:19;90919.41;;;7.31;100.00
3464;BME280;3551;41.578;24.706;2024-02-14T09:11:53;90982.94;;;7.68;100.00
3464;BME280;3551;41.578;24.706;2024-02-14T09:14:23;90955.91;;;7.45;100.00
3464;BME280;3551;41.578;24.706;2024-02-14T09:16:51;90938.09;;;7.63;100.00
3464;BME280;3551;41.578;24.706;2024-02-14T09:19:18;90934.66;;;7.63;100.00
3464;BME280;3551;41.578;24.706;2024-02-14T09:21:45;90954.41;;;7.48;100.00
3464;BME280;3551;41.578;24.706;2024-02-14T09:24:12;90935.72;;;7.30;100.00
3464;BME280;3551;41.578;24.706;2024-02-14T09:26:39;90958.19;;;7.40;100.00
3464;BME280;3551;41.578;24.706;2024-02-14T09:29:08;90961.66;;;7.58;100.00
3464;BME280;3551;41.578;24.706;2024-02-14T09:31:36;90946.84;;;7.67;100.00
3464;BME280;3551;41.578;24.706;2024-02-14T09:34:04;90937.72;;;7.61;100.00
3464;BME280;3551;41.578;24.706;2024-02-14T09:36:31;90940.38;;;7.72;100.00
3464;BME280;3551;41.578;24.706;2024-02-14T09:38:58;90937.72;;;7.75;100.00
3464;BME280;3551;41.578;24.706;2024-02-14T09:41:31;90948.75;;;7.67;100.00
3464;BME280;3551;41.578;24.706;2024-02-14T09:44:03;90920.63;;;7.73;100.00
3464;BME280;3551;41.578;24.706;2024-02-14T09:46:31;90921.34;;;7.59;100.00
3464;BME280;3551;41.578;24.706;2024-02-14T09:48:59;90940.00;;;7.66;100.00
3464;BME280;3551;41.578;24.706;2024-02-14T09:51:28;90939.22;;;7.55;100.00
3464;BME280;3551;41.578;24.706;2024-02-14T09:53:59;90929.72;;;7.72;100.00
3464;BME280;3551;41.578;24.706;2024-02-14T09:56:29;90939.25;;;7.73;100.00
3464;BME280;3551;41.578;24.706;2024-02-14T09:58:59;90944.53;;;7.66;100.00
3464;BME280;3551;41.578;24.706;2024-02-14T10:01:28;90921.34;;;7.52;100.00
3464;BME280;3551;41.578;24.706;2024-02-14T10:03:55;90957.13;;;7.76;100.00
3464;BME280;3551;41.578;24.706;2024-02-14T10:06:22;90930.88;;;7.92;100.00
3464;BME280;3551;41.578;24.706;2024-02-14T10:08:52;90921.38;;;7.80;100.00
3464;BME280;3551;41.578;24.706;2024-02-14T10:11:20;90980.72;;;7.99;100.00
3464;BME280;3551;41.578;24.706;2024-02-14T10:13:48;90943.81;;;7.93;100.00
3464;BME280;3551;41.578;24.706;2024-02-14T10:16:26;90932.03;;;8.05;100.00
3464;BME280;3551;41.578;24.706;2024-02-14T10:18:53;90947.22;;;8.01;100.00
3464;BME280;3551;41.578;24.706;2024-02-14T10:21:20;90935.06;;;7.93;100.00
3464;BME280;3551;41.578;24.706;2024-02-14T10:23:47;90939.22;;;8.12;100.00
3464;BME280;3551;41.578;24.706;2024-02-14T10:26:19;90933.53;;;8.06;100.00
3464;BME280;3551;41.578;24.706;2024-02-14T10:28:46;90932.41;;;8.14;100.00
3464;BME280;3551;41.578;24.706;2024-02-14T10:31:13;90921.00;;;7.92;97.27
3464;BME280;3551;41.578;24.706;2024-02-14T10:33:41;90934.66;;;7.77;100.00
3464;BME280;3551;41.578;24.706;2024-02-14T10:36:08;90933.16;;;7.97;100.00
3464;BME280;3551;41.578;24.706;2024-02-14T10:38:36;90937.34;;;8.12;100.00
3464;BME280;3551;41.578;24.706;2024-02-14T10:41:04;90935.06;;;7.89;100.00
3464;BME280;3551;41.578;24.706;2024-02-14T10:43:32;90923.28;;;7.90;100.00
3464;BME280;3551;41.578;24.706;2024-02-14T10:46:05;90925.56;;;7.81;100.00
3464;BME280;3551;41.578;24.706;2024-02-14T10:48:35;90950.28;;;7.92;100.00
3464;BME280;3551;41.578;24.706;2024-02-14T10:51:05;90920.63;;;7.90;100.00
3464;BME280;3551;41.578;24.706;2024-02-14T10:53:39;90919.47;;;7.88;100.00
3464;BME280;3551;41.578;24.706;2024-02-14T10:56:12;90921.00;;;7.64;100.00
3464;BME280;3551;41.578;24.706;2024-02-14T10:58:43;90926.28;;;7.57;100.00
3464;BME280;3551;41.578;24.706;2024-02-14T11:01:12;90932.78;;;7.67;100.00
3464;BME280;3551;41.578;24.706;2024-02-14T11:03:41;90927.44;;;7.74;100.00
3464;BME280;3551;41.578;24.706;2024-02-14T11:06:15;90940.38;;;7.93;100.00
3464;BME280;3551;41.578;24.706;2024-02-14T11:08:53;90946.09;;;7.84;100.00
3464;BME280;3551;41.578;24.706;2024-02-14T11:11:20;90943.03;;;7.82;100.00
3464;BME280;3551;41.578;24.706;2024-02-14T11:13:53;90935.03;;;7.82;100.00
3464;BME280;3551;41.578;24.706;2024-02-14T11:16:23;90935.03;;;7.82;100.00
3464;BME280;3551;41.578;24.706;2024-02-14T11:18:53;90941.88;;;7.52;100.00
3464;BME280;3551;41.578;24.706;2024-02-14T11:21:27;90949.84;;;7.62;100.00
3464;BME280;3551;41.578;24.706;2024-02-14T11:23:55;90946.44;;;7.79;100.00
3464;BME280;3551;41.578;24.706;2024-02-14T11:26:24;90944.94;;;7.71;100.00
3464;BME280;3551;41.578;24.706;2024-02-14T11:29:00;90946.44;;;7.65;100.00
3464;BME280;3551;41.578;24.706;2024-02-14T11:31:32;90950.25;;;7.71;100.00
3464;BME280;3551;41.578;24.706;2024-02-14T11:34:03;90952.16;;;7.78;100.00
3464;BME280;3551;41.578;24.706;2024-02-14T11:36:32;90954.81;;;7.78;100.00
3464;BME280;3551;41.578;24.706;2024-02-14T11:39:02;90952.91;;;7.64;100.00
3464;BME280;3551;41.578;24.706;2024-02-14T11:41:29;90957.84;;;7.76;100.00
3464;BME280;3551;41.578;24.706;2024-02-14T11:44:02;90952.19;;;7.85;100.00
3464;BME280;3551;41.578;24.706;2024-02-14T11:46:30;90956.31;;;7.54;100.00
3464;BME280;3551;41.578;24.706;2024-02-14T11:48:58;90949.47;;;7.53;100.00
3464;BME280;3551;41.578;24.706;2024-02-14T11:51:27;90954.81;;;7.71;100.00
3464;BME280;3551;41.578;24.706;2024-02-14T11:53:54;90971.53;;;7.71;100.00
3464;BME280;3551;41.578;24.706;2024-02-14T11:56:21;90952.91;;;7.61;100.00
3464;BME280;3551;41.578;24.706;2024-02-14T11:58:48;90955.16;;;7.45;100.00
3464;BME280;3551;41.578;24.706;2024-02-14T12:01:18;90968.50;;;7.69;100.00
3464;BME280;3551;41.578;24.706;2024-02-14T12:03:45;90954.06;;;7.70;100.00
3464;BME280;3551;41.578;24.706;2024-02-14T12:06:12;90973.06;;;7.79;100.00
3464;BME280;3551;41.578;24.706;2024-02-14T12:08:41;90958.22;;;7.71;100.00
3464;BME280;3551;41.578;24.706;2024-02-14T12:11:09;90968.91;;;7.78;100.00
3464;BME280;3551;41.578;24.706;2024-02-14T12:13:36;90969.25;;;7.77;100.00
3464;BME280;3551;41.578;24.706;2024-02-14T12:16:06;90995.53;;;7.82;100.00
3464;BME280;3551;41.578;24.706;2024-02-14T12:18:35;90955.59;;;7.64;100.00
3464;BME280;3551;41.578;24.706;2024-02-14T12:21:05;90970.06;;;7.84;100.00
3464;BME280;3551;41.578;24.706;2024-02-14T12:23:34;90992.47;;;7.80;100.00
3464;BME280;3551;41.578;24.706;2024-02-14T12:26:06;90973.84;;;7.80;100.00
3464;BME280;3551;41.578;24.706;2024-02-14T12:28:36;90971.94;;;7.66;100.00
3464;BME280;3551;41.578;24.706;2024-02-14T12:31:22;90961.25;;;7.49;100.00
3464;BME280;3551;41.578;24.706;2024-02-14T12:33:50;90973.81;;;7.55;100.00
3464;BME280;3551;41.578;24.706;2024-02-14T12:36:20;90979.91;;;7.66;100.00
3464;BME280;3551;41.578;24.706;2024-02-14T12:38:46;90998.94;;;7.86;100.00
3464;BME280;3551;41.578;24.706;2024-02-14T12:41:14;90990.94;;;7.72;100.00
3464;BME280;3551;41.578;24.706;2024-02-14T12:43:40;90987.53;;;7.75;100.00
3464;BME280;3551;41.578;24.706;2024-02-14T12:46:07;90981.84;;;7.83;100.00
3464;BME280;3551;41.578;24.706;2024-02-14T12:48:35;90988.66;;;7.67;100.00
3464;BME280;3551;41.578;24.706;2024-02-14T12:51:04;90983.69;;;7.55;100.00
3464;BME280;3551;41.578;24.706;2024-02-14T12:53:31;90990.16;;;7.57;100.00
3464;BME280;3551;41.578;24.706;2024-02-14T12:55:58;90994.72;;;7.64;100.00
3464;BME280;3551;41.578;24.706;2024-02-14T12:58:25;90997.34;;;7.53;100.00
3464;BME280;3551;41.578;24.706;2024-02-14T13:00:52;90985.16;;;7.42;100.00
3464;BME280;3551;41.578;24.706;2024-02-14T13:03:19;90991.28;;;7.49;100.00
3464;BME280;3551;41.578;24.706;2024-02-14T13:05:46;91003.84;;;7.56;100.00
3464;BME280;3551;41.578;24.706;2024-02-14T13:08:14;91012.97;;;7.58;100.00
3464;BME280;3551;41.578;24.706;2024-02-14T13:10:43;91004.94;;;7.48;100.00
3464;BME280;3551;41.578;24.706;2024-02-14T13:13:10;91031.19;;;7.60;100.00